createdAt,value
2022-09-26T00:00:19.161Z,82.00
2022-09-26T00:01:19.192Z,81.73
2022-09-26T00:02:19.204Z,79.67
2022-09-26T00:03:19.130Z,77.72
2022-09-26T00:04:22.698Z,78.03
2022-09-26T00:05:19.103Z,78.37
2022-09-26T00:06:19.098Z,78.58
2022-09-26T00:07:19.089Z,77.55
2022-09-26T00:08:19.068Z,77.24
2022-09-26T00:09:19.072Z,76.83
2022-09-26T00:10:19.061Z,75.73
2022-09-26T00:11:19.039Z,74.05
2022-09-26T00:12:19.022Z,73.54
2022-09-26T00:13:19.011Z,72.54
2022-09-26T00:14:19.000Z,71.69
2022-09-26T00:15:19.020Z,72.24
2022-09-26T00:16:19.064Z,71.82
2022-09-26T00:17:18.971Z,71.72
2022-09-26T00:18:18.950Z,71.72
2022-09-26T00:19:18.969Z,71.65
2022-09-26T00:20:18.930Z,70.10
2022-09-26T00:21:18.941Z,69.25
2022-09-26T00:22:18.909Z,69.15
2022-09-26T00:23:18.901Z,68.98
2022-09-26T00:24:18.880Z,69.59
2022-09-26T00:25:18.881Z,69.18
2022-09-26T00:26:18.864Z,68.98
2022-09-26T00:27:18.873Z,68.70
2022-09-26T00:28:18.840Z,67.66
2022-09-26T00:29:18.831Z,67.22
2022-09-26T00:30:18.849Z,66.50
2022-09-26T00:31:18.989Z,66.61
2022-09-26T00:32:18.791Z,67.05
2022-09-26T00:33:18.812Z,67.87
2022-09-26T00:34:18.784Z,66.74
2022-09-26T00:35:18.759Z,66.33
2022-09-26T00:36:18.748Z,66.22
2022-09-26T00:37:18.742Z,65.95
2022-09-26T00:38:18.750Z,65.61
2022-09-26T00:39:18.723Z,65.02
2022-09-26T00:40:18.745Z,63.96
2022-09-26T00:41:18.690Z,63.45
2022-09-26T00:42:18.679Z,64.06
2022-09-26T00:43:18.670Z,63.85
2022-09-26T00:44:18.671Z,64.50
2022-09-26T00:45:18.649Z,64.19
2022-09-26T00:46:18.704Z,64.50
2022-09-26T00:47:18.629Z,64.29
2022-09-26T00:48:18.609Z,64.09
2022-09-26T00:49:18.629Z,63.99
2022-09-26T00:50:18.590Z,64.12
2022-09-26T00:51:18.581Z,64.02
2022-09-26T00:52:18.569Z,63.60
2022-09-26T00:53:18.559Z,63.19
2022-09-26T00:54:18.550Z,62.44
2022-09-26T00:55:18.561Z,62.65
2022-09-26T00:56:18.520Z,62.75
2022-09-26T00:57:18.499Z,62.54
2022-09-26T00:58:18.499Z,62.57
2022-09-26T00:59:18.488Z,62.57
2022-09-26T01:00:18.553Z,62.57
2022-09-26T01:01:18.575Z,62.57
2022-09-26T01:02:18.556Z,62.78
2022-09-26T01:03:18.440Z,62.78
2022-09-26T01:04:18.428Z,63.01
2022-09-26T01:05:18.409Z,63.01
2022-09-26T01:06:18.403Z,62.81
2022-09-26T01:07:18.419Z,62.71
2022-09-26T01:08:18.379Z,62.92
2022-09-26T01:09:18.360Z,62.81
2022-09-26T01:10:18.349Z,62.71
2022-09-26T01:11:18.340Z,62.50
2022-09-26T01:12:18.328Z,62.74
2022-09-26T01:13:18.340Z,62.84
2022-09-26T01:14:18.309Z,62.84
2022-09-26T01:15:18.289Z,62.53
2022-09-26T01:16:18.377Z,62.63
2022-09-26T01:17:18.269Z,62.43
2022-09-26T01:18:18.268Z,62.32
2022-09-26T01:19:18.279Z,62.63
2022-09-26T01:20:18.238Z,62.12
2022-09-26T01:21:18.219Z,61.80
2022-09-26T01:22:18.217Z,61.91
2022-09-26T01:23:18.203Z,62.22
2022-09-26T01:24:18.198Z,61.70
2022-09-26T01:25:18.210Z,62.12
2022-09-26T01:26:18.168Z,61.50
2022-09-26T01:27:18.149Z,60.88
2022-09-26T01:28:18.147Z,60.88
2022-09-26T01:29:18.128Z,60.57
2022-09-26T01:30:18.119Z,60.33
2022-09-26T01:31:18.175Z,60.02
2022-09-26T01:32:18.104Z,59.61
2022-09-26T01:33:18.079Z,58.89
2022-09-26T01:34:18.068Z,58.14
2022-09-26T01:35:18.060Z,57.70
2022-09-26T01:36:18.068Z,57.50
2022-09-26T01:37:18.038Z,57.39
2022-09-26T01:38:18.027Z,57.16
2022-09-26T01:39:18.017Z,57.06
2022-09-26T01:40:18.045Z,56.85
2022-09-26T01:41:17.997Z,56.85
2022-09-26T01:42:18.005Z,56.65
2022-09-26T01:43:17.974Z,56.75
2022-09-26T01:44:17.959Z,56.44
2022-09-26T01:45:17.947Z,56.34
2022-09-26T01:46:17.989Z,56.34
2022-09-26T01:47:17.917Z,56.34
2022-09-26T01:48:17.968Z,56.26
2022-09-26T01:49:17.899Z,56.36
2022-09-26T01:50:17.888Z,56.16
2022-09-26T01:51:17.867Z,56.16
2022-09-26T01:52:17.857Z,56.16
2022-09-26T01:53:17.847Z,56.36
2022-09-26T01:54:17.857Z,56.26
2022-09-26T01:55:17.827Z,56.29
2022-09-26T01:56:17.818Z,56.29
2022-09-26T01:57:17.798Z,56.18
2022-09-26T01:58:17.801Z,56.18
2022-09-26T01:59:17.777Z,56.29
2022-09-26T02:00:17.825Z,56.18
2022-09-26T02:01:17.823Z,56.18
2022-09-26T02:02:17.799Z,56.29
2022-09-26T02:03:17.737Z,56.18
2022-09-26T02:04:17.727Z,56.18
2022-09-26T02:05:17.715Z,56.08
2022-09-26T02:06:17.716Z,56.08
2022-09-26T02:07:17.685Z,56.18
2022-09-26T02:08:17.678Z,56.08
2022-09-26T02:09:17.657Z,56.18
2022-09-26T02:10:17.658Z,56.08
2022-09-26T02:11:17.666Z,56.08
2022-09-26T02:12:17.640Z,55.98
2022-09-26T02:13:17.617Z,56.08
2022-09-26T02:14:17.606Z,55.98
2022-09-26T02:15:17.595Z,55.98
2022-09-26T02:16:17.638Z,55.98
2022-09-26T02:17:17.586Z,56.08
2022-09-26T02:18:17.566Z,56.18
2022-09-26T02:19:17.546Z,56.08
2022-09-26T02:20:17.536Z,56.08
2022-09-26T02:21:17.525Z,56.08
2022-09-26T02:22:17.537Z,56.18
2022-09-26T02:23:17.565Z,55.98
2022-09-26T02:24:17.495Z,56.10
2022-09-26T02:25:17.476Z,56.00
2022-09-26T02:26:17.476Z,56.00
2022-09-26T02:27:17.456Z,55.98
2022-09-26T02:28:17.476Z,55.98
2022-09-26T02:29:17.437Z,55.98
2022-09-26T02:30:17.427Z,55.87
2022-09-26T02:31:17.406Z,55.87
2022-09-26T02:32:17.513Z,55.87
2022-09-26T02:33:17.386Z,55.87
2022-09-26T02:34:17.414Z,55.77
2022-09-26T02:35:17.369Z,55.87
2022-09-26T02:36:17.356Z,55.87
2022-09-26T02:37:17.343Z,55.87
2022-09-26T02:38:17.337Z,55.98
2022-09-26T02:39:17.316Z,55.87
2022-09-26T02:40:17.393Z,55.87
2022-09-26T02:41:17.296Z,55.87
2022-09-26T02:42:17.286Z,55.87
2022-09-26T02:43:17.275Z,55.87
2022-09-26T02:44:17.267Z,55.87
2022-09-26T02:45:17.280Z,55.87
2022-09-26T02:46:17.284Z,55.87
2022-09-26T02:47:17.229Z,55.87
2022-09-26T02:48:17.215Z,55.87
2022-09-26T02:49:17.195Z,55.87
2022-09-26T02:50:17.195Z,55.87
2022-09-26T02:51:17.227Z,55.77
2022-09-26T02:52:17.186Z,55.77
2022-09-26T02:53:17.165Z,55.77
2022-09-26T02:54:17.147Z,55.77
2022-09-26T02:55:17.136Z,55.77
2022-09-26T02:56:17.126Z,55.77
2022-09-26T02:57:17.143Z,55.66
2022-09-26T02:58:17.135Z,55.77
2022-09-26T02:59:17.097Z,55.66
2022-09-26T03:00:17.083Z,55.66
2022-09-26T03:01:17.086Z,55.77
2022-09-26T03:02:17.055Z,55.66
2022-09-26T03:03:17.074Z,55.77
2022-09-26T03:04:17.083Z,55.77
2022-09-26T03:05:17.065Z,55.77
2022-09-26T03:06:17.013Z,55.66
2022-09-26T03:07:24.047Z,55.66
2022-09-26T03:08:16.988Z,55.64
2022-09-26T03:09:17.007Z,55.64
2022-09-26T03:10:16.972Z,55.64
2022-09-26T03:11:16.959Z,55.54
2022-09-26T03:12:16.959Z,55.64
2022-09-26T03:13:16.931Z,55.54
2022-09-26T03:14:16.918Z,55.54
2022-09-26T03:15:16.927Z,55.64
2022-09-26T03:16:16.956Z,55.54
2022-09-26T03:17:16.888Z,55.54
2022-09-26T03:18:16.875Z,55.54
2022-09-26T03:19:16.858Z,55.54
2022-09-26T03:20:16.847Z,55.54
2022-09-26T03:21:16.858Z,55.54
2022-09-26T03:22:16.827Z,55.64
2022-09-26T03:23:16.817Z,55.74
2022-09-26T03:24:16.808Z,55.54
2022-09-26T03:25:16.790Z,55.64
2022-09-26T03:26:16.777Z,55.64
2022-09-26T03:27:16.790Z,55.64
2022-09-26T03:28:16.758Z,55.64
2022-09-26T03:29:16.746Z,55.64
2022-09-26T03:30:16.743Z,55.64
2022-09-26T03:31:16.803Z,55.64
2022-09-26T03:32:16.783Z,55.64
2022-09-26T03:33:16.725Z,55.64
2022-09-26T03:34:16.697Z,55.64
2022-09-26T03:35:16.678Z,55.64
2022-09-26T03:36:16.678Z,55.74
2022-09-26T03:37:16.656Z,55.64
2022-09-26T03:38:16.649Z,55.64
2022-09-26T03:39:16.656Z,55.64
2022-09-26T03:40:16.671Z,55.64
2022-09-26T03:41:16.607Z,55.74
2022-09-26T03:42:16.608Z,55.74
2022-09-26T03:43:16.586Z,55.74
2022-09-26T03:44:16.577Z,55.64
2022-09-26T03:45:16.584Z,55.74
2022-09-26T03:46:16.602Z,55.64
2022-09-26T03:47:16.538Z,55.74
2022-09-26T03:48:16.534Z,55.72
2022-09-26T03:49:16.524Z,55.74
2022-09-26T03:50:16.539Z,55.74
2022-09-26T03:51:16.536Z,55.74
2022-09-26T03:52:16.507Z,55.74
2022-09-26T03:53:16.475Z,55.85
2022-09-26T03:54:16.466Z,55.85
2022-09-26T03:55:16.460Z,55.72
2022-09-26T03:56:16.441Z,55.72
2022-09-26T03:57:16.481Z,55.72
2022-09-26T03:58:16.419Z,55.72
2022-09-26T03:59:16.406Z,55.82
2022-09-26T04:00:16.398Z,55.82
2022-09-26T04:01:16.452Z,55.82
2022-09-26T04:02:16.423Z,55.82
2022-09-26T04:03:16.386Z,55.82
2022-09-26T04:04:16.356Z,55.82
2022-09-26T04:05:16.337Z,55.82
2022-09-26T04:06:16.326Z,55.93
2022-09-26T04:07:16.320Z,55.93
2022-09-26T04:08:16.305Z,55.93
2022-09-26T04:09:17.308Z,55.95
2022-09-26T04:10:16.285Z,55.93
2022-09-26T04:11:16.275Z,55.93
2022-09-26T04:12:16.265Z,56.03
2022-09-26T04:13:39.795Z,55.93
2022-09-26T04:14:17.265Z,55.93
2022-09-26T04:15:16.224Z,55.93
2022-09-26T04:16:16.241Z,55.93
2022-09-26T04:17:16.197Z,55.93
2022-09-26T04:18:16.193Z,56.03
2022-09-26T04:19:16.257Z,56.03
2022-09-26T04:20:16.185Z,56.03
2022-09-26T04:21:16.155Z,56.03
2022-09-26T04:22:16.146Z,56.03
2022-09-26T04:23:16.133Z,56.03
2022-09-26T04:24:16.126Z,56.03
2022-09-26T04:25:16.105Z,56.03
2022-09-26T04:26:20.316Z,56.03
2022-09-26T04:27:17.082Z,55.93
2022-09-26T04:28:16.075Z,55.93
2022-09-26T04:29:16.249Z,55.93
2022-09-26T04:30:16.060Z,55.93
2022-09-26T04:31:16.126Z,55.93
2022-09-26T04:32:16.056Z,55.90
2022-09-26T04:33:16.015Z,55.90
2022-09-26T04:34:16.010Z,55.90
2022-09-26T04:35:15.994Z,55.80
2022-09-26T04:36:15.984Z,55.80
2022-09-26T04:37:15.976Z,55.80
2022-09-26T04:38:15.975Z,55.80
2022-09-26T04:39:15.961Z,55.80
2022-09-26T04:40:15.964Z,55.80
2022-09-26T04:41:15.994Z,55.69
2022-09-26T04:42:15.916Z,55.69
2022-09-26T04:43:15.925Z,55.69
2022-09-26T04:44:15.895Z,55.66
2022-09-26T04:45:15.876Z,55.66
2022-09-26T04:46:20.027Z,55.57
2022-09-26T04:47:16.854Z,55.57
2022-09-26T04:48:15.844Z,55.57
2022-09-26T04:49:15.973Z,55.57
2022-09-26T04:50:15.825Z,55.57
2022-09-26T04:51:15.814Z,55.57
2022-09-26T04:52:15.804Z,55.57
2022-09-26T04:53:15.786Z,55.57
2022-09-26T04:54:15.782Z,55.46
2022-09-26T04:55:15.787Z,55.46
2022-09-26T04:56:15.755Z,55.46
2022-09-26T04:57:19.533Z,55.46
2022-09-26T04:58:15.736Z,55.43
2022-09-26T04:59:15.918Z,55.43
2022-09-26T05:00:15.714Z,55.43
2022-09-26T05:01:15.843Z,55.43
2022-09-26T05:02:15.792Z,55.43
2022-09-26T05:03:15.674Z,55.43
2022-09-26T05:04:15.730Z,55.43
2022-09-26T05:05:15.679Z,55.43
2022-09-26T05:06:15.646Z,55.54
2022-09-26T05:07:15.685Z,55.43
2022-09-26T05:08:15.618Z,55.43
2022-09-26T05:09:15.660Z,55.43
2022-09-26T05:10:15.595Z,55.54
2022-09-26T05:11:15.593Z,55.43
2022-09-26T05:12:15.574Z,55.43
2022-09-26T05:13:15.584Z,55.43
2022-09-26T05:14:15.552Z,55.43
2022-09-26T05:15:15.543Z,55.43
2022-09-26T05:16:15.560Z,55.54
2022-09-26T05:17:15.539Z,55.43
2022-09-26T05:18:15.506Z,55.54
2022-09-26T05:19:15.613Z,55.64
2022-09-26T05:20:15.482Z,55.64
2022-09-26T05:21:15.474Z,55.54
2022-09-26T05:22:15.463Z,55.43
2022-09-26T05:23:15.454Z,55.54
2022-09-26T05:24:15.442Z,55.54
2022-09-26T05:25:15.445Z,55.54
2022-09-26T05:26:15.416Z,55.51
2022-09-26T05:27:15.411Z,55.54
2022-09-26T05:28:15.392Z,55.41
2022-09-26T05:29:15.398Z,55.41
2022-09-26T05:30:15.404Z,55.41
2022-09-26T05:31:15.408Z,55.41
2022-09-26T05:32:15.345Z,55.41
2022-09-26T05:33:15.333Z,55.30
2022-09-26T05:34:19.515Z,55.30
2022-09-26T05:35:16.397Z,55.41
2022-09-26T05:36:15.314Z,55.30
2022-09-26T05:37:15.301Z,55.41
2022-09-26T05:38:15.284Z,55.41
2022-09-26T05:39:15.360Z,55.30
2022-09-26T05:40:15.299Z,55.30
2022-09-26T05:41:15.274Z,55.30
2022-09-26T05:42:15.241Z,55.21
2022-09-26T05:43:15.223Z,55.21
2022-09-26T05:44:15.213Z,55.18
2022-09-26T05:45:15.222Z,55.08
2022-09-26T05:46:15.245Z,55.08
2022-09-26T05:47:15.249Z,55.18
2022-09-26T05:48:15.164Z,54.97
2022-09-26T05:49:15.273Z,55.08
2022-09-26T05:50:15.158Z,54.97
2022-09-26T05:51:15.144Z,54.97
2022-09-26T05:52:15.146Z,54.87
2022-09-26T05:53:15.143Z,54.87
2022-09-26T05:54:15.115Z,54.87
2022-09-26T05:55:15.091Z,54.85
2022-09-26T05:56:18.803Z,54.85
2022-09-26T05:57:15.069Z,54.74
2022-09-26T05:58:15.073Z,54.74
2022-09-26T05:59:15.144Z,54.85
2022-09-26T06:00:15.030Z,54.85
2022-09-26T06:01:15.079Z,54.64
2022-09-26T06:02:18.582Z,54.85
2022-09-26T06:03:16.053Z,54.95
2022-09-26T06:04:14.983Z,54.95
2022-09-26T06:05:14.974Z,54.95
2022-09-26T06:06:14.961Z,54.85
2022-09-26T06:07:14.952Z,54.95
2022-09-26T06:08:14.941Z,54.74
2022-09-26T06:09:15.052Z,54.85
2022-09-26T06:10:14.914Z,54.64
2022-09-26T06:11:14.911Z,54.92
2022-09-26T06:12:14.893Z,54.82
2022-09-26T06:13:14.884Z,54.82
2022-09-26T06:14:14.872Z,54.51
2022-09-26T06:15:14.904Z,54.61
2022-09-26T06:16:14.899Z,55.02
2022-09-26T06:17:14.846Z,54.72
2022-09-26T06:18:14.823Z,54.61
2022-09-26T06:19:17.419Z,55.13
2022-09-26T06:20:14.801Z,55.33
2022-09-26T06:21:14.822Z,55.54
2022-09-26T06:22:14.780Z,55.43
2022-09-26T06:23:14.772Z,55.33
2022-09-26T06:24:14.753Z,55.62
2022-09-26T06:25:14.746Z,56.02
2022-09-26T06:26:14.734Z,55.51
2022-09-26T06:27:14.753Z,56.64
2022-09-26T06:28:14.711Z,56.51
2022-09-26T06:29:14.801Z,56.71
2022-09-26T06:30:14.682Z,55.87
2022-09-26T06:31:14.764Z,54.79
2022-09-26T06:32:14.663Z,62.80
2022-09-26T06:33:14.714Z,74.26
2022-09-26T06:34:14.642Z,74.08
2022-09-26T06:35:14.634Z,76.75
2022-09-26T06:36:14.626Z,78.93
2022-09-26T06:37:14.614Z,77.12
2022-09-26T06:38:14.594Z,77.84
2022-09-26T06:39:14.762Z,76.10
2022-09-26T06:40:14.615Z,75.82
2022-09-26T06:41:14.566Z,75.42
2022-09-26T06:42:14.553Z,74.90
2022-09-26T06:43:14.542Z,74.53
2022-09-26T06:44:14.543Z,73.91
2022-09-26T06:45:14.523Z,73.71
2022-09-26T06:46:14.588Z,73.61
2022-09-26T06:47:14.574Z,72.99
2022-09-26T06:48:14.482Z,72.78
2022-09-26T06:49:14.621Z,72.41
2022-09-26T06:50:14.475Z,71.80
2022-09-26T06:51:14.445Z,72.34
2022-09-26T06:52:14.434Z,73.57
2022-09-26T06:53:14.430Z,93.32
2022-09-26T06:54:14.413Z,99.99
2022-09-26T06:55:14.424Z,99.99
2022-09-26T06:56:14.393Z,99.99
2022-09-26T06:57:15.243Z,99.19
2022-09-26T06:58:14.366Z,92.00
2022-09-26T06:59:14.386Z,87.71
2022-09-26T07:00:14.348Z,86.35
2022-09-26T07:01:14.542Z,82.22
2022-09-26T07:02:14.424Z,79.49
2022-09-26T07:03:14.314Z,80.87
2022-09-26T07:04:14.294Z,78.00
2022-09-26T07:05:14.294Z,76.28
2022-09-26T07:06:14.325Z,76.46
2022-09-26T07:07:14.264Z,76.26
2022-09-26T07:08:14.253Z,78.38
2022-09-26T07:09:14.436Z,76.72
2022-09-26T07:10:14.233Z,75.71
2022-09-26T07:11:32.899Z,76.32
2022-09-26T07:12:15.711Z,75.57
2022-09-26T07:13:14.194Z,73.22
2022-09-26T07:14:14.184Z,72.34
2022-09-26T07:15:14.179Z,71.80
2022-09-26T07:16:14.222Z,70.59
2022-09-26T07:17:14.176Z,71.64
2022-09-26T07:18:14.136Z,76.02
2022-09-26T07:19:14.262Z,73.99
2022-09-26T07:20:14.114Z,74.53
2022-09-26T07:21:14.106Z,73.05
2022-09-26T07:22:14.095Z,75.31
2022-09-26T07:23:14.107Z,75.41
2022-09-26T07:24:14.119Z,75.24
2022-09-26T07:25:14.080Z,78.25
2022-09-26T07:26:14.046Z,80.65
2022-09-26T07:27:14.037Z,82.70
2022-09-26T07:28:14.018Z,85.52
2022-09-26T07:29:14.249Z,89.46
2022-09-26T07:30:13.998Z,93.25
2022-09-26T07:31:14.020Z,94.48
2022-09-26T07:32:13.975Z,93.43
2022-09-26T07:33:13.969Z,90.19
2022-09-26T07:34:17.978Z,86.00
2022-09-26T07:35:13.987Z,84.14
2022-09-26T07:36:13.928Z,80.41
2022-09-26T07:37:13.918Z,79.20
2022-09-26T07:38:13.908Z,79.26
2022-09-26T07:39:13.992Z,78.49
2022-09-26T07:40:13.977Z,79.16
2022-09-26T07:41:13.897Z,75.57
2022-09-26T07:42:13.872Z,71.23
2022-09-26T07:43:19.605Z,69.15
2022-09-26T07:45:27.988Z,68.85
2022-09-26T07:46:14.883Z,67.13
2022-09-26T07:47:13.802Z,66.87
2022-09-26T07:48:13.790Z,66.70
2022-09-26T07:49:13.780Z,67.47
2022-09-26T07:50:13.767Z,68.57
2022-09-26T07:51:13.760Z,69.31
2022-09-26T07:52:13.768Z,69.08
2022-09-26T07:53:13.740Z,69.28
2022-09-26T07:54:13.861Z,69.42
2022-09-26T07:55:13.711Z,69.15
2022-09-26T07:56:13.691Z,69.52
2022-09-26T07:57:13.691Z,69.01
2022-09-26T07:58:13.699Z,70.06
2022-09-26T07:59:13.670Z,71.23
2022-09-26T08:00:13.651Z,70.49
2022-09-26T08:01:13.737Z,70.89
2022-09-26T08:02:13.719Z,70.62
2022-09-26T08:03:13.679Z,69.89
2022-09-26T08:04:13.769Z,70.09
2022-09-26T08:05:13.601Z,69.15
2022-09-26T08:06:13.583Z,69.62
2022-09-26T08:07:13.574Z,71.44
2022-09-26T08:08:13.563Z,70.39
2022-09-26T08:09:13.553Z,70.09
2022-09-26T08:10:13.562Z,70.22
2022-09-26T08:11:13.532Z,67.97
2022-09-26T08:12:13.525Z,67.63
2022-09-26T08:13:13.504Z,65.29
2022-09-26T08:14:13.522Z,65.82
2022-09-26T08:15:13.483Z,65.96
2022-09-26T08:16:13.538Z,64.35
2022-09-26T08:17:14.322Z,64.95
2022-09-26T08:18:13.456Z,64.45
2022-09-26T08:19:13.531Z,65.92
2022-09-26T08:20:13.423Z,66.53
2022-09-26T08:21:13.417Z,66.33
2022-09-26T08:22:13.415Z,66.63
2022-09-26T08:23:13.394Z,66.96
2022-09-26T08:24:13.487Z,67.60
2022-09-26T08:25:13.365Z,67.87
2022-09-26T08:26:13.355Z,68.01
2022-09-26T08:27:15.086Z,69.01
2022-09-26T08:28:13.327Z,68.27
2022-09-26T08:29:13.344Z,66.93
2022-09-26T08:30:13.307Z,66.70
2022-09-26T08:31:13.355Z,65.12
2022-09-26T08:32:13.288Z,65.65
2022-09-26T08:33:13.289Z,66.22
2022-09-26T08:34:13.361Z,64.69
2022-09-26T08:35:13.248Z,65.29
2022-09-26T08:36:13.238Z,64.22
2022-09-26T08:37:13.237Z,63.45
2022-09-26T08:38:13.239Z,63.34
2022-09-26T08:39:13.286Z,62.91
2022-09-26T08:40:13.245Z,63.08
2022-09-26T08:41:13.190Z,62.35
2022-09-26T08:42:13.169Z,61.54
2022-09-26T08:43:13.169Z,63.21
2022-09-26T08:44:13.195Z,63.71
2022-09-26T08:45:13.142Z,63.39
2022-09-26T08:46:13.152Z,63.96
2022-09-26T08:47:13.121Z,62.24
2022-09-26T08:48:13.109Z,63.51
2022-09-26T08:49:13.121Z,64.12
2022-09-26T08:50:13.091Z,64.35
2022-09-26T08:51:13.082Z,64.35
2022-09-26T08:52:13.071Z,64.62
2022-09-26T08:53:13.053Z,64.62
2022-09-26T08:54:13.063Z,62.18
2022-09-26T08:55:13.054Z,61.77
2022-09-26T08:56:13.021Z,62.88
2022-09-26T08:57:13.014Z,63.11
2022-09-26T08:58:12.993Z,62.61
2022-09-26T08:59:12.993Z,62.65
2022-09-26T09:00:12.976Z,61.67
2022-09-26T09:01:13.096Z,62.71
2022-09-26T09:02:13.089Z,62.48
2022-09-26T09:03:13.044Z,62.51
2022-09-26T09:04:13.041Z,62.94
2022-09-26T09:05:12.924Z,64.28
2022-09-26T09:06:12.908Z,64.25
2022-09-26T09:07:12.915Z,64.22
2022-09-26T09:08:19.937Z,63.01
2022-09-26T09:09:12.877Z,63.18
2022-09-26T09:10:12.891Z,62.82
2022-09-26T09:11:12.855Z,61.88
2022-09-26T09:12:12.846Z,60.28
2022-09-26T09:13:12.847Z,60.71
2022-09-26T09:14:12.842Z,60.78
2022-09-26T09:15:25.300Z,60.88
2022-09-26T09:16:13.880Z,60.38
2022-09-26T09:17:12.791Z,60.78
2022-09-26T09:18:13.944Z,60.24
2022-09-26T09:19:12.766Z,61.80
2022-09-26T09:20:12.750Z,63.57
2022-09-26T09:21:12.739Z,66.08
2022-09-26T09:22:12.738Z,67.36
2022-09-26T09:23:12.721Z,69.55
2022-09-26T09:24:12.760Z,70.86
2022-09-26T09:25:12.698Z,71.17
2022-09-26T09:28:13.690Z,72.48
2022-09-26T09:29:12.726Z,73.73
2022-09-26T09:30:16.899Z,74.44
2022-09-26T09:31:12.655Z,74.81
2022-09-26T09:32:12.624Z,73.19
2022-09-26T09:33:12.600Z,74.33
2022-09-26T09:34:12.601Z,73.73
2022-09-26T09:35:12.578Z,74.13
2022-09-26T09:36:12.591Z,74.44
2022-09-26T09:37:12.568Z,73.22
2022-09-26T09:38:12.553Z,73.73
2022-09-26T09:39:12.539Z,73.39
2022-09-26T09:40:12.527Z,74.20
2022-09-26T09:41:12.516Z,73.90
2022-09-26T09:42:12.523Z,73.56
2022-09-26T09:43:12.488Z,73.09
2022-09-26T09:44:12.533Z,73.49
2022-09-26T09:45:12.471Z,73.86
2022-09-26T09:46:12.519Z,72.85
2022-09-26T09:47:12.475Z,73.22
2022-09-26T09:48:12.441Z,73.52
2022-09-26T09:49:12.422Z,72.08
2022-09-26T09:50:12.412Z,71.87
2022-09-26T09:51:12.402Z,70.73
2022-09-26T09:52:12.393Z,70.83
2022-09-26T09:53:12.451Z,70.25
2022-09-26T09:54:12.460Z,70.76
2022-09-26T09:55:12.457Z,71.03
2022-09-26T09:56:12.351Z,70.86
2022-09-26T09:57:12.332Z,71.77
2022-09-26T09:58:12.323Z,71.26
2022-09-26T09:59:12.325Z,71.20
2022-09-26T10:00:12.303Z,72.24
2022-09-26T10:01:12.294Z,72.75
2022-09-26T10:02:12.284Z,71.70
2022-09-26T10:03:12.337Z,71.91
2022-09-26T10:04:12.380Z,70.89
2022-09-26T10:05:12.244Z,70.59
2022-09-26T10:06:46.433Z,70.39
2022-09-26T10:07:13.223Z,71.30
2022-09-26T10:08:12.219Z,70.86
2022-09-26T10:09:38.561Z,70.02
2022-09-26T10:10:13.224Z,69.21
2022-09-26T10:11:12.176Z,69.71
2022-09-26T10:12:12.176Z,68.91
2022-09-26T10:13:12.156Z,69.48
2022-09-26T10:14:12.162Z,68.17
2022-09-26T10:15:12.134Z,67.66
2022-09-26T10:16:12.247Z,68.17
2022-09-26T10:17:12.118Z,67.73
2022-09-26T10:18:24.826Z,67.50
2022-09-26T10:19:13.095Z,65.65
2022-09-26T10:20:12.085Z,64.98
2022-09-26T10:21:12.085Z,64.17
2022-09-26T10:22:12.078Z,63.26
2022-09-26T10:23:12.045Z,63.36
2022-09-26T10:24:12.098Z,63.49
2022-09-26T10:25:12.015Z,63.90
2022-09-26T10:26:12.008Z,65.08
2022-09-26T10:27:12.020Z,63.96
2022-09-26T10:28:11.986Z,64.78
2022-09-26T10:29:11.975Z,63.87
2022-09-26T10:30:11.966Z,63.93
2022-09-26T10:31:12.036Z,65.04
2022-09-26T10:32:11.939Z,65.75
2022-09-26T10:33:11.947Z,64.70
2022-09-26T10:34:11.979Z,64.84
2022-09-26T10:35:15.029Z,65.14
2022-09-26T10:36:12.886Z,64.67
2022-09-26T10:37:11.876Z,65.17
2022-09-26T10:38:11.866Z,66.15
2022-09-26T10:39:11.878Z,65.44
2022-09-26T10:40:11.893Z,66.25
2022-09-26T10:41:11.829Z,65.54
2022-09-26T10:42:11.818Z,65.57
2022-09-26T10:43:11.812Z,65.88
2022-09-26T10:44:11.802Z,66.01
2022-09-26T10:45:11.803Z,66.61
2022-09-26T10:46:11.893Z,66.92
2022-09-26T10:47:11.759Z,67.22
2022-09-26T10:48:11.750Z,67.22
2022-09-26T10:49:11.738Z,67.93
2022-09-26T10:50:11.748Z,68.54
2022-09-26T10:51:11.712Z,68.63
2022-09-26T10:52:16.063Z,68.03
2022-09-26T10:53:12.692Z,67.83
2022-09-26T10:54:12.125Z,68.63
2022-09-26T10:55:11.660Z,68.74
2022-09-26T10:56:11.670Z,68.23
2022-09-26T10:57:11.639Z,69.14
2022-09-26T10:58:13.920Z,68.40
2022-09-26T10:59:11.623Z,67.69
2022-09-26T11:00:11.608Z,68.20
2022-09-26T11:01:11.687Z,68.27
2022-09-26T11:02:11.627Z,68.37
2022-09-26T11:03:11.603Z,66.82
2022-09-26T11:04:11.770Z,66.49
2022-09-26T11:05:11.541Z,66.69
2022-09-26T11:06:11.540Z,65.85
2022-09-26T11:07:11.540Z,65.15
2022-09-26T11:08:11.513Z,64.44
2022-09-26T11:09:11.503Z,64.92
2022-09-26T11:10:11.490Z,62.60
2022-09-26T11:11:11.473Z,62.12
2022-09-26T11:12:11.471Z,61.92
2022-09-26T11:13:11.475Z,62.15
2022-09-26T11:14:11.441Z,61.98
2022-09-26T11:15:11.437Z,63.59
2022-09-26T11:16:11.471Z,62.99
2022-09-26T11:17:11.403Z,63.26
2022-09-26T11:18:11.394Z,63.87
2022-09-26T11:19:11.435Z,62.65
2022-09-26T11:20:11.373Z,62.08
2022-09-26T11:21:31.051Z,62.45
2022-09-26T11:22:12.353Z,61.85
2022-09-26T11:23:11.336Z,60.97
2022-09-26T11:24:11.326Z,61.68
2022-09-26T11:25:11.338Z,62.71
2022-09-26T11:26:11.309Z,61.40
2022-09-26T11:27:11.292Z,62.24
2022-09-26T11:28:11.305Z,63.15
2022-09-26T11:29:11.262Z,63.28
2022-09-26T11:30:11.255Z,63.08
2022-09-26T11:31:11.307Z,63.78
2022-09-26T11:32:11.234Z,64.79
2022-09-26T11:33:11.215Z,62.90
2022-09-26T11:34:11.205Z,63.41
2022-09-26T11:35:11.194Z,64.32
2022-09-26T11:36:11.187Z,64.22
2022-09-26T11:37:11.185Z,63.61
2022-09-26T11:38:11.195Z,64.12
2022-09-26T11:39:11.147Z,64.93
2022-09-26T11:40:11.184Z,64.09
2022-09-26T11:41:11.126Z,64.49
2022-09-26T11:42:11.143Z,63.25
2022-09-26T11:43:11.103Z,61.91
2022-09-26T11:44:11.193Z,61.71
2022-09-26T11:45:11.078Z,61.17
2022-09-26T11:46:11.144Z,61.68
2022-09-26T11:47:11.056Z,61.85
2022-09-26T11:48:11.066Z,60.64
2022-09-26T11:49:11.030Z,60.61
2022-09-26T11:50:11.066Z,60.00
2022-09-26T11:51:11.007Z,59.33
2022-09-26T11:52:10.996Z,60.16
2022-09-26T11:53:10.985Z,60.53
2022-09-26T11:54:10.999Z,60.24
2022-09-26T11:55:10.958Z,60.77
2022-09-26T11:56:10.962Z,60.57
2022-09-26T11:57:10.937Z,60.69
2022-09-26T11:58:10.928Z,61.94
2022-09-26T11:59:10.936Z,62.67
2022-09-26T12:00:10.927Z,63.58
2022-09-26T12:01:10.892Z,63.71
2022-09-26T12:02:10.888Z,65.03
2022-09-26T12:03:10.914Z,64.83
2022-09-26T12:04:11.030Z,65.43
2022-09-26T12:05:10.866Z,65.33
2022-09-26T12:06:10.829Z,64.62
2022-09-26T12:07:10.818Z,65.03
2022-09-26T12:08:10.810Z,64.83
2022-09-26T12:09:10.799Z,64.93
2022-09-26T12:10:10.807Z,65.03
2022-09-26T12:11:10.790Z,65.43
2022-09-26T12:12:10.771Z,64.83
2022-09-26T12:13:10.751Z,65.10
2022-09-26T12:14:10.741Z,64.52
2022-09-26T12:15:10.731Z,65.33
2022-09-26T12:16:10.808Z,65.23
2022-09-26T12:17:10.731Z,65.23
2022-09-26T12:18:10.700Z,65.33
2022-09-26T12:19:16.137Z,64.83
2022-09-26T12:20:11.674Z,65.64
2022-09-26T12:21:10.666Z,65.23
2022-09-26T12:22:10.652Z,66.04
2022-09-26T12:23:10.702Z,65.64
2022-09-26T12:24:10.632Z,65.53
2022-09-26T12:25:10.611Z,65.53
2022-09-26T12:26:10.600Z,66.14
2022-09-26T12:27:10.582Z,65.64
2022-09-26T12:28:10.585Z,65.30
2022-09-26T12:29:10.582Z,65.40
2022-09-26T12:30:10.551Z,65.67
2022-09-26T12:31:10.563Z,64.46
2022-09-26T12:32:10.533Z,66.25
2022-09-26T12:33:10.523Z,65.34
2022-09-26T12:34:10.514Z,65.92
2022-09-26T12:35:10.513Z,65.11
2022-09-26T12:36:10.492Z,64.10
2022-09-26T12:37:10.464Z,64.30
2022-09-26T12:38:10.462Z,64.40
2022-09-26T12:39:10.442Z,63.90
2022-09-26T12:40:10.450Z,63.93
2022-09-26T12:41:10.441Z,63.82
2022-09-26T12:42:10.412Z,64.87
2022-09-26T12:43:10.393Z,64.46
2022-09-26T12:44:10.393Z,65.00
2022-09-26T12:45:10.373Z,66.11
2022-09-26T12:46:10.385Z,66.72
2022-09-26T12:47:10.372Z,66.21
2022-09-26T12:48:10.337Z,65.30
2022-09-26T12:49:10.428Z,65.64
2022-09-26T12:50:10.383Z,66.31
2022-09-26T12:51:10.303Z,66.75
2022-09-26T12:52:10.294Z,68.67
2022-09-26T12:53:10.314Z,67.55
2022-09-26T12:54:10.266Z,67.35
2022-09-26T12:55:10.252Z,69.14